createdAt,value
2022-11-29T00:27:19.260Z,4.25
2022-11-29T00:57:19.272Z,4.25
2022-11-29T01:27:19.267Z,4.19
2022-11-29T01:57:19.267Z,4.31
2022-11-29T02:27:19.275Z,4.25
2022-11-29T02:57:19.278Z,4.44
2022-11-29T03:27:19.281Z,4.38
2022-11-29T03:57:19.274Z,4.38
2022-11-29T04:27:19.292Z,4.56
2022-11-29T04:57:19.288Z,4.63
2022-11-29T05:27:19.287Z,4.69
2022-11-29T05:57:19.300Z,4.75
2022-11-29T06:27:19.311Z,4.69
2022-11-29T06:57:19.313Z,5
2022-11-29T07:27:19.322Z,4.81
2022-11-29T07:57:19.315Z,5.19
2022-11-29T08:27:19.300Z,5.5
2022-11-29T08:57:39.204Z,5.38
2022-11-29T09:27:19.308Z,5.63
2022-11-29T09:57:19.319Z,5.81
2022-11-29T10:27:19.325Z,6.13
2022-11-29T10:57:19.325Z,6.25
2022-11-29T11:27:19.350Z,6.38
2022-11-29T11:57:19.341Z,6.75
2022-11-29T12:27:19.383Z,6.88
2022-11-29T12:57:19.349Z,6.88
2022-11-29T13:27:19.342Z,6.88
2022-11-29T13:57:19.343Z,6.75
2022-11-29T14:27:19.353Z,6.63
2022-11-29T14:57:19.352Z,6.5
2022-11-29T15:27:19.358Z,6.38
2022-11-29T15:57:19.356Z,6.38
2022-11-29T16:27:19.350Z,6.31
2022-11-29T16:57:19.380Z,6.19
2022-11-29T17:27:19.368Z,6.13
2022-11-29T17:57:19.379Z,5.88
2022-11-29T18:27:19.400Z,5.81
2022-11-29T18:57:19.395Z,5.75
2022-11-29T19:27:19.415Z,5.88
2022-11-29T19:57:19.413Z,5.75
2022-11-29T20:27:19.428Z,5.69
2022-11-29T20:57:19.441Z,5.5
2022-11-29T21:27:19.445Z,5.56
2022-11-29T21:57:19.447Z,5.63
2022-11-29T22:27:19.441Z,5.56
2022-11-29T22:57:19.445Z,5.38
2022-11-29T23:27:19.442Z,5.5
2022-11-29T23:57:19.444Z,5.38
